Zaliv Amerika — C4ZR2 — position and weather

sailwx.info

Track history (hours):
 
Tides and Currents Weather Stations Pressure Air Temp Water Temp Dewpoint Dewpoint Depression Visibility Wind Speed Wind Dir Waves Ship Positions

Zaliv Amerika

Last reported at 2015-May-01 03:29 UTC. Time now 2015-May-24 09:24 UTC.
Position N 35°04' E 119°41'.
Warning: this ship's position is 23 days out of date.

Length 243 m; draft 14.3 m.

Type: Tanker. MMSI: 210435000.

Date/timePositionNaut miles runAvg speedWind from/ knotsBaromVisibWave heightAir tempDewpointWater temp
2015-May-01 03:29N 35°04' E 119°41'9 9.8
2015-May-01 02:32N 35°03' E 119°29'6 6.0
2015-May-01 01:33N 35°06' E 119°24'0 0.0
2015-May-01 00:32N 35°06' E 119°24'0 0.0
2015-Apr-30 23:20N 35°06' E 119°24'0 0.0
2015-Apr-30 22:32N 35°06' E 119°24'0 0.0
2015-Apr-30 21:25N 35°06' E 119°24'0 0.0
2015-Apr-30 20:24N 35°06' E 119°24'0 0.0
2015-Apr-30 19:18N 35°06' E 119°24'0 0.0
2015-Apr-30 18:18N 35°06' E 119°24'0 0.0
2015-Apr-30 17:29N 35°06' E 119°24'0 0.0
2015-Apr-30 15:23N 35°06' E 119°24'0 0.0
2015-Apr-30 14:16N 35°06' E 119°24'0 0.0
2015-Apr-30 13:21N 35°06' E 119°24'0 0.0
2015-Apr-30 12:27N 35°06' E 119°24'0 0.0
2015-Apr-30 11:33N 35°06' E 119°24'0 0.0
2015-Apr-30 10:32N 35°06' E 119°24'0 0.0
2015-Apr-30 09:26N 35°06' E 119°24'0 0.0
2015-Apr-30 08:26N 35°06' E 119°24'0 0.0
2015-Apr-30 07:25N 35°06' E 119°24'0 0.0
2015-Apr-30 06:25N 35°06' E 119°24'0 0.0
2015-Apr-30 04:24N 35°06' E 119°24'0 0.0
2015-Apr-30 03:05N 35°06' E 119°24'0 0.0
2015-Apr-30 02:29N 35°06' E 119°24'0 0.0
2015-Apr-30 01:22N 35°06' E 119°24'0 0.0
2015-Apr-30 00:28N 35°06' E 119°24'0 0.0
2015-Apr-29 23:22N 35°06' E 119°24'0 0.0
2015-Apr-29 20:32N 35°06' E 119°24'0 0.0
2015-Apr-29 19:26N 35°06' E 119°24'0 0.0
2015-Apr-29 18:25N 35°06' E 119°24'0 0.0
2015-Apr-29 17:13N 35°06' E 119°24'0 0.0
2015-Apr-29 16:31N 35°06' E 119°24'0 0.0
2015-Apr-29 12:05N 35°06' E 119°24'0 0.0
2015-Apr-29 11:22N 35°06' E 119°24'0 0.0
2015-Apr-29 10:16N 35°06' E 119°24'0 0.0
2015-Apr-29 09:22N 35°06' E 119°24'0 0.0
2015-Apr-29 08:33N 35°06' E 119°24'0 0.0
2015-Apr-29 07:33N 35°06' E 119°24'1 0.7
2015-Apr-29 06:33N 35°06' E 119°24'8 7.7
2015-Apr-29 05:33N 35°03' E 119°33'7 6.6
2015-Apr-29 04:33N 35°04' E 119°40'3 1.5
2015-Apr-29 02:31N 35°04' E 119°44'0 0.0
2015-Apr-29 01:13N 35°04' E 119°44'0 0.1
2015-Apr-29 00:30N 35°04' E 119°44'0 0.0
2015-Apr-28 23:30N 35°04' E 119°44'0 0.0
2015-Apr-28 22:30N 35°04' E 119°44'0 0.0
2015-Apr-28 21:29N 35°04' E 119°44'0 0.0
2015-Apr-28 13:13N 35°04' E 119°44'0 0.0
2015-Apr-28 12:13N 35°04' E 119°44'0 0.0
2015-Apr-28 11:19N 35°04' E 119°44'0 0.0
2015-Apr-28 10:30N 35°04' E 119°44'0 0.0
2015-Apr-28 09:30N 35°04' E 119°44'0 0.0
2015-Apr-28 01:14N 35°04' E 119°44'0 0.0
2015-Apr-27 23:32N 35°04' E 119°44'0 0.0
2015-Apr-27 20:06N 35°04' E 119°44'0 0.0
2015-Apr-27 16:17N 35°04' E 119°44'0 0.0
2015-Apr-27 15:22N 35°04' E 119°44'0 0.0
2015-Apr-27 14:15N 35°04' E 119°44'0 0.0
2015-Apr-27 12:21N 35°04' E 119°44'0 0.0
2015-Apr-27 11:32N 35°04' E 119°44'0 0.0
2015-Apr-27 10:32N 35°04' E 119°44'0 0.0
2015-Apr-27 09:32N 35°04' E 119°44'0 0.0
2015-Apr-27 08:31N 35°04' E 119°44'0 0.0
2015-Apr-27 07:31N 35°04' E 119°44'0 0.0
2015-Apr-26 12:28N 35°04' E 119°44'0 0.0
2015-Apr-26 11:33N 35°04' E 119°44'0 0.1
2015-Apr-26 10:33N 35°04' E 119°44'0 0.0
2015-Apr-26 09:33N 35°04' E 119°44'0 0.0
2015-Apr-26 08:32N 35°04' E 119°44'0 0.0
2015-Apr-26 07:31N 35°04' E 119°44'0 0.0
2015-Apr-26 06:31N 35°04' E 119°44'0 0.0
2015-Apr-26 02:30N 35°04' E 119°44'0 0.0
2015-Apr-26 00:09N 35°04' E 119°44'0 0.0
2015-Apr-25 22:28N 35°04' E 119°44'0 0.0
2015-Apr-25 21:28N 35°04' E 119°44'0 0.0
2015-Apr-25 20:33N 35°04' E 119°44'0 0.0
2015-Apr-25 19:22N 35°04' E 119°44'0 0.0
2015-Apr-25 18:09N 35°04' E 119°44'0 0.0
2015-Apr-25 17:32N 35°04' E 119°44'0 0.0
2015-Apr-25 16:31N 35°04' E 119°44'0 0.0
2015-Apr-25 15:19N 35°04' E 119°44'0 0.0
2015-Apr-25 12:18N 35°04' E 119°44'0 0.0
2015-Apr-25 11:05N 35°04' E 119°44'0 0.0
2015-Apr-25 10:05N 35°04' E 119°44'0 0.0
2015-Apr-25 09:29N 35°04' E 119°44'0 0.1
2015-Apr-25 08:28N 35°04' E 119°44'0 0.0
2015-Apr-25 07:28N 35°04' E 119°44'0 0.0
2015-Apr-25 06:15N 35°04' E 119°44'0 0.0
2015-Apr-25 05:33N 35°04' E 119°44'0 0.0
2015-Apr-25 04:33N 35°04' E 119°44'0 0.0
2015-Apr-25 03:32N 35°04' E 119°44'0 0.0
2015-Apr-25 02:32N 35°04' E 119°44'0 0.0
2015-Apr-24 22:24N 35°04' E 119°44'0 0.0
2015-Apr-24 21:23N 35°04' E 119°44'0 0.1
2015-Apr-24 20:29N 35°04' E 119°44'0 0.0
2015-Apr-24 19:23N 35°04' E 119°44'0 0.0
2015-Apr-24 18:28N 35°04' E 119°44'0 0.1
2015-Apr-24 17:27N 35°04' E 119°44'0 0.0
2015-Apr-24 16:33N 35°04' E 119°44'0 0.0
2015-Apr-24 15:15N 35°04' E 119°44'0 0.0
2015-Apr-24 14:20N 35°04' E 119°44'0 0.0
2015-Apr-24 13:32N 35°04' E 119°44'0 0.0
2015-Apr-24 12:26N 35°04' E 119°44'0 0.0
2015-Apr-24 11:31N 35°04' E 119°44'0 0.0
2015-Apr-24 10:31N 35°04' E 119°44'0 0.0
2015-Apr-24 08:24N 35°04' E 119°44'0 0.0
2015-Apr-24 07:29N 35°04' E 119°44'0 0.0
2015-Apr-24 06:23N 35°04' E 119°44'0 0.0
2015-Apr-24 05:29N 35°04' E 119°44'0 0.0
2015-Apr-24 04:16N 35°04' E 119°44'0 0.0
2015-Apr-24 03:04N 35°04' E 119°44'0 0.0
2015-Apr-24 02:15N 35°04' E 119°44'0 0.0
2015-Apr-23 20:25N 35°04' E 119°44'0 0.0
2015-Apr-23 19:30N 35°04' E 119°44'0 0.0
2015-Apr-23 18:30N 35°04' E 119°44'0 0.0
2015-Apr-23 17:23N 35°04' E 119°44'0 0.0
2015-Apr-23 16:29N 35°04' E 119°44'0 0.0
2015-Apr-23 15:28N 35°04' E 119°44'0 0.0
2015-Apr-23 14:28N 35°04' E 119°44'0 0.0
2015-Apr-23 11:16N 35°04' E 119°44'3 4.3
2015-Apr-23 10:33N 35°04' E 119°48'1711.7
2015-Apr-23 09:05N 34°59' E 120°08'33711.3
2015-Apr-22 03:22N 30°60' E 124°51'  
Track history (hours):
 
Tides and Currents Weather Stations Pressure Air Temp Water Temp Dewpoint Dewpoint Depression Visibility Wind Speed Wind Dir Waves Ship Positions

Zaliv Amerika

Last reported at 2015-May-01 03:29 UTC. Time now 2015-May-24 09:24 UTC.
Position N 35°04' E 119°41'.
Warning: this ship's position is 23 days out of date.

Length 243 m; draft 14.3 m.

Type: Tanker. MMSI: 210435000.

Date/timePositionNaut miles runAvg speedWind from/ knotsBaromVisibWave heightAir tempDewpointWater temp
2015-May-01 03:29N 35°04' E 119°41'9 9.8
2015-May-01 02:32N 35°03' E 119°29'6 6.0
2015-May-01 01:33N 35°06' E 119°24'0 0.0
2015-May-01 00:32N 35°06' E 119°24'0 0.0
2015-Apr-30 23:20N 35°06' E 119°24'0 0.0
2015-Apr-30 22:32N 35°06' E 119°24'0 0.0
2015-Apr-30 21:25N 35°06' E 119°24'0 0.0
2015-Apr-30 20:24N 35°06' E 119°24'0 0.0
2015-Apr-30 19:18N 35°06' E 119°24'0 0.0
2015-Apr-30 18:18N 35°06' E 119°24'0 0.0
2015-Apr-30 17:29N 35°06' E 119°24'0 0.0
2015-Apr-30 15:23N 35°06' E 119°24'0 0.0
2015-Apr-30 14:16N 35°06' E 119°24'0 0.0
2015-Apr-30 13:21N 35°06' E 119°24'0 0.0
2015-Apr-30 12:27N 35°06' E 119°24'0 0.0
2015-Apr-30 11:33N 35°06' E 119°24'0 0.0
2015-Apr-30 10:32N 35°06' E 119°24'0 0.0
2015-Apr-30 09:26N 35°06' E 119°24'0 0.0
2015-Apr-30 08:26N 35°06' E 119°24'0 0.0
2015-Apr-30 07:25N 35°06' E 119°24'0 0.0
2015-Apr-30 06:25N 35°06' E 119°24'0 0.0
2015-Apr-30 04:24N 35°06' E 119°24'0 0.0
2015-Apr-30 03:05N 35°06' E 119°24'0 0.0
2015-Apr-30 02:29N 35°06' E 119°24'0 0.0
2015-Apr-30 01:22N 35°06' E 119°24'0 0.0
2015-Apr-30 00:28N 35°06' E 119°24'0 0.0
2015-Apr-29 23:22N 35°06' E 119°24'0 0.0
2015-Apr-29 20:32N 35°06' E 119°24'0 0.0
2015-Apr-29 19:26N 35°06' E 119°24'0 0.0
2015-Apr-29 18:25N 35°06' E 119°24'0 0.0
2015-Apr-29 17:13N 35°06' E 119°24'0 0.0
2015-Apr-29 16:31N 35°06' E 119°24'0 0.0
2015-Apr-29 12:05N 35°06' E 119°24'0 0.0
2015-Apr-29 11:22N 35°06' E 119°24'0 0.0
2015-Apr-29 10:16N 35°06' E 119°24'0 0.0
2015-Apr-29 09:22N 35°06' E 119°24'0 0.0
2015-Apr-29 08:33N 35°06' E 119°24'0 0.0
2015-Apr-29 07:33N 35°06' E 119°24'1 0.7
2015-Apr-29 06:33N 35°06' E 119°24'8 7.7
2015-Apr-29 05:33N 35°03' E 119°33'7 6.6
2015-Apr-29 04:33N 35°04' E 119°40'3 1.5
2015-Apr-29 02:31N 35°04' E 119°44'0 0.0
2015-Apr-29 01:13N 35°04' E 119°44'0 0.1
2015-Apr-29 00:30N 35°04' E 119°44'0 0.0
2015-Apr-28 23:30N 35°04' E 119°44'0 0.0
2015-Apr-28 22:30N 35°04' E 119°44'0 0.0
2015-Apr-28 21:29N 35°04' E 119°44'0 0.0
2015-Apr-28 13:13N 35°04' E 119°44'0 0.0
2015-Apr-28 12:13N 35°04' E 119°44'0 0.0
2015-Apr-28 11:19N 35°04' E 119°44'0 0.0
2015-Apr-28 10:30N 35°04' E 119°44'0 0.0
2015-Apr-28 09:30N 35°04' E 119°44'0 0.0
2015-Apr-28 01:14N 35°04' E 119°44'0 0.0
2015-Apr-27 23:32N 35°04' E 119°44'0 0.0
2015-Apr-27 20:06N 35°04' E 119°44'0 0.0
2015-Apr-27 16:17N 35°04' E 119°44'0 0.0
2015-Apr-27 15:22N 35°04' E 119°44'0 0.0
2015-Apr-27 14:15N 35°04' E 119°44'0 0.0
2015-Apr-27 12:21N 35°04' E 119°44'0 0.0
2015-Apr-27 11:32N 35°04' E 119°44'0 0.0
2015-Apr-27 10:32N 35°04' E 119°44'0 0.0
2015-Apr-27 09:32N 35°04' E 119°44'0 0.0
2015-Apr-27 08:31N 35°04' E 119°44'0 0.0
2015-Apr-27 07:31N 35°04' E 119°44'0 0.0
2015-Apr-26 12:28N 35°04' E 119°44'0 0.0
2015-Apr-26 11:33N 35°04' E 119°44'0 0.1
2015-Apr-26 10:33N 35°04' E 119°44'0 0.0
2015-Apr-26 09:33N 35°04' E 119°44'0 0.0
2015-Apr-26 08:32N 35°04' E 119°44'0 0.0
2015-Apr-26 07:31N 35°04' E 119°44'0 0.0
2015-Apr-26 06:31N 35°04' E 119°44'0 0.0
2015-Apr-26 02:30N 35°04' E 119°44'0 0.0
2015-Apr-26 00:09N 35°04' E 119°44'0 0.0
2015-Apr-25 22:28N 35°04' E 119°44'0 0.0
2015-Apr-25 21:28N 35°04' E 119°44'0 0.0
2015-Apr-25 20:33N 35°04' E 119°44'0 0.0
2015-Apr-25 19:22N 35°04' E 119°44'0 0.0
2015-Apr-25 18:09N 35°04' E 119°44'0 0.0
2015-Apr-25 17:32N 35°04' E 119°44'0 0.0
2015-Apr-25 16:31N 35°04' E 119°44'0 0.0
2015-Apr-25 15:19N 35°04' E 119°44'0 0.0
2015-Apr-25 12:18N 35°04' E 119°44'0 0.0
2015-Apr-25 11:05N 35°04' E 119°44'0 0.0
2015-Apr-25 10:05N 35°04' E 119°44'0 0.0
2015-Apr-25 09:29N 35°04' E 119°44'0 0.1
2015-Apr-25 08:28N 35°04' E 119°44'0 0.0
2015-Apr-25 07:28N 35°04' E 119°44'0 0.0
2015-Apr-25 06:15N 35°04' E 119°44'0 0.0
2015-Apr-25 05:33N 35°04' E 119°44'0 0.0
2015-Apr-25 04:33N 35°04' E 119°44'0 0.0
2015-Apr-25 03:32N 35°04' E 119°44'0 0.0
2015-Apr-25 02:32N 35°04' E 119°44'0 0.0
2015-Apr-24 22:24N 35°04' E 119°44'0 0.0
2015-Apr-24 21:23N 35°04' E 119°44'0 0.1
2015-Apr-24 20:29N 35°04' E 119°44'0 0.0
2015-Apr-24 19:23N 35°04' E 119°44'0 0.0
2015-Apr-24 18:28N 35°04' E 119°44'0 0.1
2015-Apr-24 17:27N 35°04' E 119°44'0 0.0
2015-Apr-24 16:33N 35°04' E 119°44'0 0.0
2015-Apr-24 15:15N 35°04' E 119°44'0 0.0
2015-Apr-24 14:20N 35°04' E 119°44'0 0.0
2015-Apr-24 13:32N 35°04' E 119°44'0 0.0
2015-Apr-24 12:26N 35°04' E 119°44'0 0.0
2015-Apr-24 11:31N 35°04' E 119°44'0 0.0
2015-Apr-24 10:31N 35°04' E 119°44'0 0.0
2015-Apr-24 08:24N 35°04' E 119°44'0 0.0
2015-Apr-24 07:29N 35°04' E 119°44'0 0.0
2015-Apr-24 06:23N 35°04' E 119°44'0 0.0
2015-Apr-24 05:29N 35°04' E 119°44'0 0.0
2015-Apr-24 04:16N 35°04' E 119°44'0 0.0
2015-Apr-24 03:04N 35°04' E 119°44'0 0.0
2015-Apr-24 02:15N 35°04' E 119°44'0 0.0
2015-Apr-23 20:25N 35°04' E 119°44'0 0.0
2015-Apr-23 19:30N 35°04' E 119°44'0 0.0
2015-Apr-23 18:30N 35°04' E 119°44'0 0.0
2015-Apr-23 17:23N 35°04' E 119°44'0 0.0
2015-Apr-23 16:29N 35°04' E 119°44'0 0.0
2015-Apr-23 15:28N 35°04' E 119°44'0 0.0
2015-Apr-23 14:28N 35°04' E 119°44'0 0.0
2015-Apr-23 11:16N 35°04' E 119°44'3 4.3
2015-Apr-23 10:33N 35°04' E 119°48'1711.7
2015-Apr-23 09:05N 34°59' E 120°08'33711.3
2015-Apr-22 03:22N 30°60' E 124°51'  

Dump ship's entire track history